sensor_id;sensor_type;location;lat;lon;timestamp;temperature;humidity
35258;DHT22;21385;50.878;8.050;2023-11-21T00:01:51;9.10;99.90
35258;DHT22;21385;50.878;8.050;2023-11-21T00:04:17;9.10;99.90
35258;DHT22;21385;50.878;8.050;2023-11-21T00:06:42;9.10;99.90
35258;DHT22;21385;50.878;8.050;2023-11-21T00:09:08;9.10;99.90
35258;DHT22;21385;50.878;8.050;2023-11-21T00:11:35;9.10;99.90
35258;DHT22;21385;50.878;8.050;2023-11-21T00:14:00;9.00;99.90
35258;DHT22;21385;50.878;8.050;2023-11-21T00:16:26;9.00;99.90
35258;DHT22;21385;50.878;8.050;2023-11-21T00:18:51;9.00;99.90
35258;DHT22;21385;50.878;8.050;2023-11-21T00:21:17;8.90;99.90
35258;DHT22;21385;50.878;8.050;2023-11-21T00:23:43;8.90;99.90
35258;DHT22;21385;50.878;8.050;2023-11-21T00:26:08;8.80;99.90
35258;DHT22;21385;50.878;8.050;2023-11-21T00:28:34;8.80;99.90
35258;DHT22;21385;50.878;8.050;2023-11-21T00:30:59;8.70;99.90
35258;DHT22;21385;50.878;8.050;2023-11-21T00:33:25;8.60;99.90
35258;DHT22;21385;50.878;8.050;2023-11-21T00:35:51;8.60;99.90
35258;DHT22;21385;50.878;8.050;2023-11-21T00:38:16;8.50;99.90
35258;DHT22;21385;50.878;8.050;2023-11-21T00:40:45;8.50;99.90
35258;DHT22;21385;50.878;8.050;2023-11-21T00:43:11;8.50;99.90
35258;DHT22;21385;50.878;8.050;2023-11-21T00:45:36;8.50;99.90
35258;DHT22;21385;50.878;8.050;2023-11-21T00:48:02;8.50;99.90
35258;DHT22;21385;50.878;8.050;2023-11-21T00:50:30;8.50;99.90
35258;DHT22;21385;50.878;8.050;2023-11-21T00:52:56;8.50;99.90
35258;DHT22;21385;50.878;8.050;2023-11-21T00:55:22;8.50;99.90
35258;DHT22;21385;50.878;8.050;2023-11-21T00:57:48;8.50;99.90
35258;DHT22;21385;50.878;8.050;2023-11-21T01:00:14;8.50;99.90
35258;DHT22;21385;50.878;8.050;2023-11-21T01:02:43;8.50;99.90
35258;DHT22;21385;50.878;8.050;2023-11-21T01:05:10;8.50;99.90
35258;DHT22;21385;50.878;8.050;2023-11-21T01:07:36;8.40;99.90
35258;DHT22;21385;50.878;8.050;2023-11-21T01:10:03;8.40;99.90
35258;DHT22;21385;50.878;8.050;2023-11-21T01:12:31;8.50;99.90
35258;DHT22;21385;50.878;8.050;2023-11-21T01:14:56;8.50;99.90
35258;DHT22;21385;50.878;8.050;2023-11-21T01:17:25;8.60;99.90
35258;DHT22;21385;50.878;8.050;2023-11-21T01:19:51;8.60;99.90
35258;DHT22;21385;50.878;8.050;2023-11-21T01:22:16;8.60;99.90
35258;DHT22;21385;50.878;8.050;2023-11-21T01:24:47;8.60;99.90
35258;DHT22;21385;50.878;8.050;2023-11-21T01:27:13;8.60;99.90
35258;DHT22;21385;50.878;8.050;2023-11-21T01:29:38;8.60;99.90
35258;DHT22;21385;50.878;8.050;2023-11-21T01:32:06;8.60;99.90
35258;DHT22;21385;50.878;8.050;2023-11-21T01:34:33;8.60;99.90
35258;DHT22;21385;50.878;8.050;2023-11-21T01:36:59;8.60;99.90
35258;DHT22;21385;50.878;8.050;2023-11-21T01:39:25;8.50;99.90
35258;DHT22;21385;50.878;8.050;2023-11-21T01:41:51;8.60;99.90
35258;DHT22;21385;50.878;8.050;2023-11-21T01:44:17;8.50;99.90
35258;DHT22;21385;50.878;8.050;2023-11-21T01:46:45;8.50;99.90
35258;DHT22;21385;50.878;8.050;2023-11-21T01:49:11;8.50;99.90
35258;DHT22;21385;50.878;8.050;2023-11-21T01:51:39;8.50;99.90
35258;DHT22;21385;50.878;8.050;2023-11-21T01:54:06;8.40;99.90
35258;DHT22;21385;50.878;8.050;2023-11-21T01:56:32;8.40;99.90
35258;DHT22;21385;50.878;8.050;2023-11-21T01:58:58;8.40;99.90
35258;DHT22;21385;50.878;8.050;2023-11-21T02:01:23;8.40;99.90
35258;DHT22;21385;50.878;8.050;2023-11-21T02:03:51;8.40;99.90
35258;DHT22;21385;50.878;8.050;2023-11-21T02:06:17;8.40;99.90
35258;DHT22;21385;50.878;8.050;2023-11-21T02:08:44;8.50;99.90
35258;DHT22;21385;50.878;8.050;2023-11-21T02:11:10;8.40;99.90
35258;DHT22;21385;50.878;8.050;2023-11-21T02:13:38;8.50;99.90
35258;DHT22;21385;50.878;8.050;2023-11-21T02:16:09;8.50;99.90
35258;DHT22;21385;50.878;8.050;2023-11-21T02:18:35;8.50;99.90
35258;DHT22;21385;50.878;8.050;2023-11-21T02:21:04;8.50;99.90
35258;DHT22;21385;50.878;8.050;2023-11-21T02:23:30;8.50;99.90
35258;DHT22;21385;50.878;8.050;2023-11-21T02:25:55;8.50;99.90
35258;DHT22;21385;50.878;8.050;2023-11-21T02:28:21;8.40;99.90
35258;DHT22;21385;50.878;8.050;2023-11-21T02:30:54;8.40;99.90
35258;DHT22;21385;50.878;8.050;2023-11-21T02:33:21;8.50;99.90
35258;DHT22;21385;50.878;8.050;2023-11-21T02:35:47;8.50;99.90
35258;DHT22;21385;50.878;8.050;2023-11-21T02:38:12;8.50;99.90
35258;DHT22;21385;50.878;8.050;2023-11-21T02:40:39;8.50;99.90
35258;DHT22;21385;50.878;8.050;2023-11-21T02:43:05;8.50;99.90
35258;DHT22;21385;50.878;8.050;2023-11-21T02:45:31;8.50;99.90
35258;DHT22;21385;50.878;8.050;2023-11-21T02:47:57;8.50;99.90
35258;DHT22;21385;50.878;8.050;2023-11-21T02:50:23;8.50;99.90
35258;DHT22;21385;50.878;8.050;2023-11-21T02:52:49;8.50;99.90
35258;DHT22;21385;50.878;8.050;2023-11-21T02:55:14;8.50;99.90
35258;DHT22;21385;50.878;8.050;2023-11-21T02:57:40;8.50;99.90
35258;DHT22;21385;50.878;8.050;2023-11-21T03:00:06;8.60;99.90
35258;DHT22;21385;50.878;8.050;2023-11-21T03:02:41;8.50;99.90
35258;DHT22;21385;50.878;8.050;2023-11-21T03:05:07;8.50;99.90
35258;DHT22;21385;50.878;8.050;2023-11-21T03:07:39;8.50;99.90
35258;DHT22;21385;50.878;8.050;2023-11-21T03:10:08;8.50;99.90
35258;DHT22;21385;50.878;8.050;2023-11-21T03:12:39;8.40;99.90
35258;DHT22;21385;50.878;8.050;2023-11-21T03:15:06;8.40;99.90
35258;DHT22;21385;50.878;8.050;2023-11-21T03:17:32;8.40;99.90
35258;DHT22;21385;50.878;8.050;2023-11-21T03:19:59;8.40;99.90
35258;DHT22;21385;50.878;8.050;2023-11-21T03:22:25;8.40;99.90
35258;DHT22;21385;50.878;8.050;2023-11-21T03:24:51;8.40;99.90
35258;DHT22;21385;50.878;8.050;2023-11-21T03:27:18;8.40;99.90
35258;DHT22;21385;50.878;8.050;2023-11-21T03:29:44;8.40;99.90
35258;DHT22;21385;50.878;8.050;2023-11-21T03:32:10;8.40;99.90
35258;DHT22;21385;50.878;8.050;2023-11-21T03:34:56;8.50;99.90
35258;DHT22;21385;50.878;8.050;2023-11-21T03:37:22;8.50;99.90
35258;DHT22;21385;50.878;8.050;2023-11-21T03:39:48;8.40;99.90
35258;DHT22;21385;50.878;8.050;2023-11-21T03:42:13;8.50;99.90
35258;DHT22;21385;50.878;8.050;2023-11-21T03:44:39;8.50;99.90
35258;DHT22;21385;50.878;8.050;2023-11-21T03:47:04;8.50;99.90
35258;DHT22;21385;50.878;8.050;2023-11-21T03:49:30;8.40;99.90
35258;DHT22;21385;50.878;8.050;2023-11-21T03:51:56;8.30;99.90
35258;DHT22;21385;50.878;8.050;2023-11-21T03:54:22;8.40;99.90
35258;DHT22;21385;50.878;8.050;2023-11-21T03:56:47;8.40;99.90
35258;DHT22;21385;50.878;8.050;2023-11-21T03:59:13;8.30;99.90
35258;DHT22;21385;50.878;8.050;2023-11-21T04:01:38;8.40;99.90
35258;DHT22;21385;50.878;8.050;2023-11-21T04:04:04;8.40;99.90
35258;DHT22;21385;50.878;8.050;2023-11-21T04:06:30;8.40;99.90
35258;DHT22;21385;50.878;8.050;2023-11-21T04:08:55;8.40;99.90
35258;DHT22;21385;50.878;8.050;2023-11-21T04:11:21;8.40;99.90
35258;DHT22;21385;50.878;8.050;2023-11-21T04:13:46;8.40;99.90
35258;DHT22;21385;50.878;8.050;2023-11-21T04:16:12;8.50;99.90
35258;DHT22;21385;50.878;8.050;2023-11-21T04:18:38;8.40;99.90
35258;DHT22;21385;50.878;8.050;2023-11-21T04:21:05;8.50;99.90
35258;DHT22;21385;50.878;8.050;2023-11-21T04:23:31;8.40;99.90
35258;DHT22;21385;50.878;8.050;2023-11-21T04:25:57;8.50;99.90
35258;DHT22;21385;50.878;8.050;2023-11-21T04:28:26;8.40;99.90
35258;DHT22;21385;50.878;8.050;2023-11-21T04:30:51;8.40;99.90
35258;DHT22;21385;50.878;8.050;2023-11-21T04:33:17;8.50;99.90
35258;DHT22;21385;50.878;8.050;2023-11-21T04:35:43;8.50;99.90
35258;DHT22;21385;50.878;8.050;2023-11-21T04:38:08;8.50;99.90
35258;DHT22;21385;50.878;8.050;2023-11-21T04:40:34;8.60;99.90
35258;DHT22;21385;50.878;8.050;2023-11-21T04:42:59;8.50;99.90
35258;DHT22;21385;50.878;8.050;2023-11-21T04:45:25;8.50;99.90
35258;DHT22;21385;50.878;8.050;2023-11-21T04:47:50;8.60;99.90
35258;DHT22;21385;50.878;8.050;2023-11-21T04:50:18;8.60;99.90
35258;DHT22;21385;50.878;8.050;2023-11-21T04:52:44;8.60;99.90
35258;DHT22;21385;50.878;8.050;2023-11-21T04:55:10;8.60;99.90
35258;DHT22;21385;50.878;8.050;2023-11-21T04:57:39;8.60;99.90
35258;DHT22;21385;50.878;8.050;2023-11-21T05:00:08;8.50;99.90
35258;DHT22;21385;50.878;8.050;2023-11-21T05:02:34;8.50;99.90
35258;DHT22;21385;50.878;8.050;2023-11-21T05:05:00;8.50;99.90
35258;DHT22;21385;50.878;8.050;2023-11-21T05:07:26;8.50;99.90
35258;DHT22;21385;50.878;8.050;2023-11-21T05:09:55;8.50;99.90
35258;DHT22;21385;50.878;8.050;2023-11-21T05:12:22;8.50;99.90
35258;DHT22;21385;50.878;8.050;2023-11-21T05:14:49;8.50;99.90
35258;DHT22;21385;50.878;8.050;2023-11-21T05:17:14;8.50;99.90
35258;DHT22;21385;50.878;8.050;2023-11-21T05:19:40;8.50;99.90
35258;DHT22;21385;50.878;8.050;2023-11-21T05:22:06;8.60;99.90
35258;DHT22;21385;50.878;8.050;2023-11-21T05:24:32;8.70;99.90
35258;DHT22;21385;50.878;8.050;2023-11-21T05:26:57;8.70;99.90
35258;DHT22;21385;50.878;8.050;2023-11-21T05:29:23;8.70;99.90
35258;DHT22;21385;50.878;8.050;2023-11-21T05:31:48;8.80;99.90
35258;DHT22;21385;50.878;8.050;2023-11-21T05:34:15;8.90;99.90
35258;DHT22;21385;50.878;8.050;2023-11-21T05:36:43;8.90;99.90
35258;DHT22;21385;50.878;8.050;2023-11-21T05:39:09;9.00;99.90
35258;DHT22;21385;50.878;8.050;2023-11-21T05:41:36;9.00;99.90
35258;DHT22;21385;50.878;8.050;2023-11-21T05:44:02;9.10;99.90
35258;DHT22;21385;50.878;8.050;2023-11-21T05:46:28;9.10;99.90
35258;DHT22;21385;50.878;8.050;2023-11-21T05:48:53;9.10;99.90
35258;DHT22;21385;50.878;8.050;2023-11-21T05:51:19;9.10;99.90
35258;DHT22;21385;50.878;8.050;2023-11-21T05:53:44;9.00;99.90
35258;DHT22;21385;50.878;8.050;2023-11-21T05:56:10;9.00;99.90
35258;DHT22;21385;50.878;8.050;2023-11-21T05:58:35;8.90;99.90
35258;DHT22;21385;50.878;8.050;2023-11-21T06:01:01;8.90;99.90
35258;DHT22;21385;50.878;8.050;2023-11-21T06:03:28;8.90;99.90
35258;DHT22;21385;50.878;8.050;2023-11-21T06:05:54;9.00;99.90
35258;DHT22;21385;50.878;8.050;2023-11-21T06:08:19;9.00;99.90
35258;DHT22;21385;50.878;8.050;2023-11-21T06:10:45;9.00;99.90
35258;DHT22;21385;50.878;8.050;2023-11-21T06:13:14;9.00;99.90
35258;DHT22;21385;50.878;8.050;2023-11-21T06:15:40;9.00;99.90
35258;DHT22;21385;50.878;8.050;2023-11-21T06:18:06;9.00;99.90
35258;DHT22;21385;50.878;8.050;2023-11-21T06:20:35;9.10;99.90
35258;DHT22;21385;50.878;8.050;2023-11-21T06:23:02;9.00;99.90
35258;DHT22;21385;50.878;8.050;2023-11-21T06:25:29;8.90;99.90
35258;DHT22;21385;50.878;8.050;2023-11-21T06:27:55;9.00;99.90
35258;DHT22;21385;50.878;8.050;2023-11-21T06:30:21;9.00;99.90
35258;DHT22;21385;50.878;8.050;2023-11-21T06:32:48;9.00;99.90
35258;DHT22;21385;50.878;8.050;2023-11-21T06:35:15;9.00;99.90
35258;DHT22;21385;50.878;8.050;2023-11-21T06:37:40;9.00;99.90
35258;DHT22;21385;50.878;8.050;2023-11-21T06:40:07;9.00;99.90
35258;DHT22;21385;50.878;8.050;2023-11-21T06:42:32;9.00;99.90
35258;DHT22;21385;50.878;8.050;2023-11-21T06:45:03;9.00;99.90
35258;DHT22;21385;50.878;8.050;2023-11-21T06:47:29;9.00;99.90
35258;DHT22;21385;50.878;8.050;2023-11-21T06:49:56;9.10;99.90
35258;DHT22;21385;50.878;8.050;2023-11-21T06:52:22;9.00;99.90
35258;DHT22;21385;50.878;8.050;2023-11-21T06:54:48;9.10;99.90
35258;DHT22;21385;50.878;8.050;2023-11-21T06:57:17;9.00;99.90
35258;DHT22;21385;50.878;8.050;2023-11-21T06:59:43;8.90;99.90
35258;DHT22;21385;50.878;8.050;2023-11-21T07:02:08;8.90;99.90
35258;DHT22;21385;50.878;8.050;2023-11-21T07:04:35;9.00;99.90
35258;DHT22;21385;50.878;8.050;2023-11-21T07:07:04;9.00;99.90
35258;DHT22;21385;50.878;8.050;2023-11-21T07:09:30;9.00;99.90
35258;DHT22;21385;50.878;8.050;2023-11-21T07:11:56;9.00;99.90
35258;DHT22;21385;50.878;8.050;2023-11-21T07:14:22;9.10;99.90
35258;DHT22;21385;50.878;8.050;2023-11-21T07:16:48;9.10;99.90
35258;DHT22;21385;50.878;8.050;2023-11-21T07:19:14;9.10;99.90
35258;DHT22;21385;50.878;8.050;2023-11-21T07:21:40;9.10;99.90
35258;DHT22;21385;50.878;8.050;2023-11-21T07:24:07;9.00;99.90
35258;DHT22;21385;50.878;8.050;2023-11-21T07:26:34;9.00;99.90
35258;DHT22;21385;50.878;8.050;2023-11-21T07:29:00;9.00;99.90
35258;DHT22;21385;50.878;8.050;2023-11-21T07:31:26;9.00;99.90
35258;DHT22;21385;50.878;8.050;2023-11-21T07:33:52;9.00;99.90
35258;DHT22;21385;50.878;8.050;2023-11-21T07:36:19;9.00;99.90
35258;DHT22;21385;50.878;8.050;2023-11-21T07:38:46;9.00;99.90
35258;DHT22;21385;50.878;8.050;2023-11-21T07:41:11;9.00;99.90
35258;DHT22;21385;50.878;8.050;2023-11-21T07:43:41;9.30;99.90
35258;DHT22;21385;50.878;8.050;2023-11-21T07:46:06;9.40;99.90
35258;DHT22;21385;50.878;8.050;2023-11-21T07:48:33;9.40;99.90
35258;DHT22;21385;50.878;8.050;2023-11-21T07:50:59;9.30;99.90
35258;DHT22;21385;50.878;8.050;2023-11-21T07:53:25;9.30;99.90
35258;DHT22;21385;50.878;8.050;2023-11-21T07:55:51;9.20;99.90
35258;DHT22;21385;50.878;8.050;2023-11-21T07:58:17;9.20;99.90
35258;DHT22;21385;50.878;8.050;2023-11-21T08:00:43;9.20;99.90
35258;DHT22;21385;50.878;8.050;2023-11-21T08:03:09;9.20;99.90
35258;DHT22;21385;50.878;8.050;2023-11-21T08:05:35;9.20;99.90
35258;DHT22;21385;50.878;8.050;2023-11-21T08:08:00;9.20;99.90
35258;DHT22;21385;50.878;8.050;2023-11-21T08:10:26;9.20;99.90
35258;DHT22;21385;50.878;8.050;2023-11-21T08:12:52;9.20;99.90
35258;DHT22;21385;50.878;8.050;2023-11-21T08:15:19;9.30;99.90
35258;DHT22;21385;50.878;8.050;2023-11-21T08:17:46;9.30;99.90
35258;DHT22;21385;50.878;8.050;2023-11-21T08:20:12;9.30;99.90
35258;DHT22;21385;50.878;8.050;2023-11-21T08:22:37;9.30;99.90
35258;DHT22;21385;50.878;8.050;2023-11-21T08:25:06;9.70;99.90
35258;DHT22;21385;50.878;8.050;2023-11-21T08:27:33;9.80;99.90
35258;DHT22;21385;50.878;8.050;2023-11-21T08:30:00;9.80;99.90
35258;DHT22;21385;50.878;8.050;2023-11-21T08:32:26;9.70;99.90
35258;DHT22;21385;50.878;8.050;2023-11-21T08:34:51;9.70;99.90
35258;DHT22;21385;50.878;8.050;2023-11-21T08:37:17;9.70;99.90
35258;DHT22;21385;50.878;8.050;2023-11-21T08:39:46;10.00;99.90
35258;DHT22;21385;50.878;8.050;2023-11-21T08:42:13;10.20;99.90
35258;DHT22;21385;50.878;8.050;2023-11-21T08:44:40;10.20;99.90
35258;DHT22;21385;50.878;8.050;2023-11-21T08:47:05;10.20;99.90
35258;DHT22;21385;50.878;8.050;2023-11-21T08:49:31;10.20;99.90
35258;DHT22;21385;50.878;8.050;2023-11-21T08:51:58;10.30;99.90
35258;DHT22;21385;50.878;8.050;2023-11-21T08:54:25;10.30;99.90
35258;DHT22;21385;50.878;8.050;2023-11-21T08:56:51;10.30;99.90
35258;DHT22;21385;50.878;8.050;2023-11-21T08:59:17;10.20;99.90
35258;DHT22;21385;50.878;8.050;2023-11-21T09:01:42;10.20;99.90
35258;DHT22;21385;50.878;8.050;2023-11-21T09:04:08;10.10;99.90
35258;DHT22;21385;50.878;8.050;2023-11-21T09:06:34;10.10;99.90
35258;DHT22;21385;50.878;8.050;2023-11-21T09:09:00;10.00;99.90
35258;DHT22;21385;50.878;8.050;2023-11-21T09:11:26;9.90;99.90
35258;DHT22;21385;50.878;8.050;2023-11-21T09:13:56;9.90;99.90
35258;DHT22;21385;50.878;8.050;2023-11-21T09:16:23;9.90;99.90
35258;DHT22;21385;50.878;8.050;2023-11-21T09:18:48;9.90;99.90
35258;DHT22;21385;50.878;8.050;2023-11-21T09:21:14;9.80;99.90
35258;DHT22;21385;50.878;8.050;2023-11-21T09:23:39;9.90;99.90
35258;DHT22;21385;50.878;8.050;2023-11-21T09:26:05;9.80;99.90
35258;DHT22;21385;50.878;8.050;2023-11-21T09:28:31;9.80;99.90
35258;DHT22;21385;50.878;8.050;2023-11-21T09:30:56;9.80;99.90
35258;DHT22;21385;50.878;8.050;2023-11-21T09:33:22;9.90;99.90
35258;DHT22;21385;50.878;8.050;2023-11-21T09:35:50;10.00;99.90
35258;DHT22;21385;50.878;8.050;2023-11-21T09:38:16;9.90;99.90
35258;DHT22;21385;50.878;8.050;2023-11-21T09:40:42;9.90;99.90
35258;DHT22;21385;50.878;8.050;2023-11-21T09:43:17;10.00;99.90
35258;DHT22;21385;50.878;8.050;2023-11-21T09:45:48;10.00;99.90
35258;DHT22;21385;50.878;8.050;2023-11-21T09:48:16;9.90;99.90
35258;DHT22;21385;50.878;8.050;2023-11-21T09:50:43;9.90;99.90
35258;DHT22;21385;50.878;8.050;2023-11-21T09:53:18;9.90;99.90
35258;DHT22;21385;50.878;8.050;2023-11-21T09:55:48;9.80;99.90
35258;DHT22;21385;50.878;8.050;2023-11-21T09:58:16;9.80;99.90
35258;DHT22;21385;50.878;8.050;2023-11-21T10:00:43;9.80;99.90
35258;DHT22;21385;50.878;8.050;2023-11-21T10:03:09;9.80;99.90
35258;DHT22;21385;50.878;8.050;2023-11-21T10:05:36;9.60;99.90
35258;DHT22;21385;50.878;8.050;2023-11-21T10:08:04;9.60;99.90
35258;DHT22;21385;50.878;8.050;2023-11-21T10:10:32;9.60;99.90
35258;DHT22;21385;50.878;8.050;2023-11-21T10:13:01;9.60;99.90
35258;DHT22;21385;50.878;8.050;2023-11-21T10:15:27;9.70;99.90
35258;DHT22;21385;50.878;8.050;2023-11-21T10:17:55;9.70;99.90
35258;DHT22;21385;50.878;8.050;2023-11-21T10:20:20;9.70;99.90
35258;DHT22;21385;50.878;8.050;2023-11-21T10:22:46;9.70;99.90
35258;DHT22;21385;50.878;8.050;2023-11-21T10:25:12;9.60;99.90
35258;DHT22;21385;50.878;8.050;2023-11-21T10:27:42;9.70;99.90
35258;DHT22;21385;50.878;8.050;2023-11-21T10:30:09;9.70;99.90
35258;DHT22;21385;50.878;8.050;2023-11-21T10:32:41;9.70;99.90
35258;DHT22;21385;50.878;8.050;2023-11-21T10:35:08;9.70;99.90
35258;DHT22;21385;50.878;8.050;2023-11-21T10:37:41;9.80;99.90
35258;DHT22;21385;50.878;8.050;2023-11-21T10:40:12;9.80;99.90
35258;DHT22;21385;50.878;8.050;2023-11-21T10:42:41;9.80;99.90
35258;DHT22;21385;50.878;8.050;2023-11-21T10:45:08;9.70;99.90
35258;DHT22;21385;50.878;8.050;2023-11-21T10:47:42;9.80;99.90
35258;DHT22;21385;50.878;8.050;2023-11-21T10:50:09;9.90;99.90
35258;DHT22;21385;50.878;8.050;2023-11-21T10:52:42;10.00;99.90
35258;DHT22;21385;50.878;8.050;2023-11-21T10:55:19;10.10;99.90
35258;DHT22;21385;50.878;8.050;2023-11-21T10:57:53;10.10;99.90
35258;DHT22;21385;50.878;8.050;2023-11-21T11:00:19;10.10;99.90
35258;DHT22;21385;50.878;8.050;2023-11-21T11:02:52;10.20;99.90
35258;DHT22;21385;50.878;8.050;2023-11-21T11:05:29;10.20;99.90
35258;DHT22;21385;50.878;8.050;2023-11-21T11:08:05;10.20;99.90
35258;DHT22;21385;50.878;8.050;2023-11-21T11:10:31;10.20;99.90
35258;DHT22;21385;50.878;8.050;2023-11-21T11:12:58;10.20;99.90
35258;DHT22;21385;50.878;8.050;2023-11-21T11:15:28;10.20;99.90
35258;DHT22;21385;50.878;8.050;2023-11-21T11:17:54;10.20;99.90
35258;DHT22;21385;50.878;8.050;2023-11-21T11:20:27;10.30;99.90
35258;DHT22;21385;50.878;8.050;2023-11-21T11:25:53;10.30;99.90
35258;DHT22;21385;50.878;8.050;2023-11-21T11:28:35;10.30;99.90
35258;DHT22;21385;50.878;8.050;2023-11-21T11:31:13;10.30;99.90
35258;DHT22;21385;50.878;8.050;2023-11-21T11:34:01;10.30;99.90
35258;DHT22;21385;50.878;8.050;2023-11-21T11:36:41;10.20;99.90
35258;DHT22;21385;50.878;8.050;2023-11-21T11:39:31;10.30;99.90
35258;DHT22;21385;50.878;8.050;2023-11-21T11:42:02;10.30;99.90
35258;DHT22;21385;50.878;8.050;2023-11-21T11:52:36;10.20;99.90
35258;DHT22;21385;50.878;8.050;2023-11-21T11:55:03;10.20;99.90
35258;DHT22;21385;50.878;8.050;2023-11-21T11:57:34;10.20;99.90
35258;DHT22;21385;50.878;8.050;2023-11-21T12:02:42;10.40;99.90
35258;DHT22;21385;50.878;8.050;2023-11-21T12:05:13;10.50;99.90
35258;DHT22;21385;50.878;8.050;2023-11-21T12:07:52;10.50;99.90
35258;DHT22;21385;50.878;8.050;2023-11-21T12:10:20;10.50;99.90
35258;DHT22;21385;50.878;8.050;2023-11-21T12:15:13;10.50;99.90
35258;DHT22;21385;50.878;8.050;2023-11-21T12:17:43;10.50;99.90
35258;DHT22;21385;50.878;8.050;2023-11-21T12:20:10;10.50;99.90
35258;DHT22;21385;50.878;8.050;2023-11-21T12:22:50;10.40;99.90
35258;DHT22;21385;50.878;8.050;2023-11-21T12:25:16;10.30;99.90
35258;DHT22;21385;50.878;8.050;2023-11-21T12:27:51;10.40;99.90
35258;DHT22;21385;50.878;8.050;2023-11-21T12:30:19;10.40;99.90
35258;DHT22;21385;50.878;8.050;2023-11-21T12:32:47;10.30;99.90
35258;DHT22;21385;50.878;8.050;2023-11-21T12:35:14;10.40;99.90
35258;DHT22;21385;50.878;8.050;2023-11-21T12:37:41;10.40;99.90
35258;DHT22;21385;50.878;8.050;2023-11-21T12:40:10;10.50;99.90
35258;DHT22;21385;50.878;8.050;2023-11-21T12:43:01;10.60;99.90
35258;DHT22;21385;50.878;8.050;2023-11-21T12:45:29;10.60;99.90
35258;DHT22;21385;50.878;8.050;2023-11-21T12:48:05;10.50;99.90
35258;DHT22;21385;50.878;8.050;2023-11-21T12:50:37;10.50;99.90
35258;DHT22;21385;50.878;8.050;2023-11-21T12:53:12;10.50;99.90
35258;DHT22;21385;50.878;8.050;2023-11-21T12:55:38;10.50;99.90
35258;DHT22;21385;50.878;8.050;2023-11-21T12:58:08;10.50;99.90
35258;DHT22;21385;50.878;8.050;2023-11-21T13:00:43;10.50;99.90
35258;DHT22;21385;50.878;8.050;2023-11-21T13:03:11;10.50;99.90
35258;DHT22;21385;50.878;8.050;2023-11-21T13:05:39;10.50;99.90
35258;DHT22;21385;50.878;8.050;2023-11-21T13:08:10;10.50;99.90
35258;DHT22;21385;50.878;8.050;2023-11-21T13:10:40;10.40;99.90
35258;DHT22;21385;50.878;8.050;2023-11-21T13:13:09;10.40;99.90
35258;DHT22;21385;50.878;8.050;2023-11-21T13:15:39;10.40;99.90
35258;DHT22;21385;50.878;8.050;2023-11-21T13:18:06;10.40;99.90
35258;DHT22;21385;50.878;8.050;2023-11-21T13:20:32;10.40;99.90
35258;DHT22;21385;50.878;8.050;2023-11-21T13:22:58;10.40;99.90
35258;DHT22;21385;50.878;8.050;2023-11-21T13:25:28;10.40;99.90
35258;DHT22;21385;50.878;8.050;2023-11-21T13:28:02;10.40;99.90
35258;DHT22;21385;50.878;8.050;2023-11-21T13:30:28;10.30;99.90
35258;DHT22;21385;50.878;8.050;2023-11-21T13:33:04;10.40;99.90
35258;DHT22;21385;50.878;8.050;2023-11-21T13:35:37;10.40;99.90
35258;DHT22;21385;50.878;8.050;2023-11-21T13:38:15;10.40;99.90
35258;DHT22;21385;50.878;8.050;2023-11-21T13:40:49;10.50;99.90
35258;DHT22;21385;50.878;8.050;2023-11-21T13:43:22;10.50;99.90
35258;DHT22;21385;50.878;8.050;2023-11-21T13:45:50;10.60;99.90
35258;DHT22;21385;50.878;8.050;2023-11-21T13:48:22;10.60;99.90
35258;DHT22;21385;50.878;8.050;2023-11-21T13:50:57;10.60;99.90
35258;DHT22;21385;50.878;8.050;2023-11-21T13:53:34;10.60;99.90
35258;DHT22;21385;50.878;8.050;2023-11-21T13:56:03;10.60;99.90
35258;DHT22;21385;50.878;8.050;2023-11-21T13:58:29;10.60;99.90
35258;DHT22;21385;50.878;8.050;2023-11-21T14:01:10;10.60;99.90
35258;DHT22;21385;50.878;8.050;2023-11-21T14:04:03;10.60;99.90
35258;DHT22;21385;50.878;8.050;2023-11-21T14:06:50;10.60;99.90
35258;DHT22;21385;50.878;8.050;2023-11-21T14:09:20;10.60;99.90
35258;DHT22;21385;50.878;8.050;2023-11-21T14:12:08;10.60;99.90
35258;DHT22;21385;50.878;8.050;2023-11-21T14:14:37;10.60;99.90
35258;DHT22;21385;50.878;8.050;2023-11-21T14:17:04;10.60;99.90
35258;DHT22;21385;50.878;8.050;2023-11-21T14:19:32;10.60;99.90
35258;DHT22;21385;50.878;8.050;2023-11-21T14:21:59;10.50;99.90
35258;DHT22;21385;50.878;8.050;2023-11-21T14:24:25;10.50;99.90
35258;DHT22;21385;50.878;8.050;2023-11-21T14:26:51;10.40;99.90
35258;DHT22;21385;50.878;8.050;2023-11-21T14:29:18;10.40;99.90
35258;DHT22;21385;50.878;8.050;2023-11-21T14:31:47;10.30;99.90
35258;DHT22;21385;50.878;8.050;2023-11-21T14:34:14;10.30;99.90
35258;DHT22;21385;50.878;8.050;2023-11-21T14:36:40;10.30;99.90
35258;DHT22;21385;50.878;8.050;2023-11-21T14:39:06;10.30;99.90
35258;DHT22;21385;50.878;8.050;2023-11-21T14:41:35;10.30;99.90
35258;DHT22;21385;50.878;8.050;2023-11-21T14:44:02;10.30;99.90
35258;DHT22;21385;50.878;8.050;2023-11-21T14:46:29;10.30;99.90
35258;DHT22;21385;50.878;8.050;2023-11-21T14:48:55;10.40;99.90
35258;DHT22;21385;50.878;8.050;2023-11-21T14:51:27;10.30;99.90
35258;DHT22;21385;50.878;8.050;2023-11-21T14:53:56;10.30;99.90
35258;DHT22;21385;50.878;8.050;2023-11-21T14:56:26;10.40;99.90
35258;DHT22;21385;50.878;8.050;2023-11-21T14:58:56;10.40;99.90
35258;DHT22;21385;50.878;8.050;2023-11-21T15:01:23;10.40;99.90
35258;DHT22;21385;50.878;8.050;2023-11-21T15:04:08;10.40;99.90
35258;DHT22;21385;50.878;8.050;2023-11-21T15:06:40;10.30;99.90
35258;DHT22;21385;50.878;8.050;2023-11-21T15:09:08;10.30;99.90
35258;DHT22;21385;50.878;8.050;2023-11-21T15:11:35;10.30;99.90
35258;DHT22;21385;50.878;8.050;2023-11-21T15:14:02;10.30;99.90
35258;DHT22;21385;50.878;8.050;2023-11-21T15:16:32;10.30;99.90
35258;DHT22;21385;50.878;8.050;2023-11-21T15:18:58;10.30;99.90
35258;DHT22;21385;50.878;8.050;2023-11-21T15:21:24;10.30;99.90
35258;DHT22;21385;50.878;8.050;2023-11-21T15:23:50;10.30;99.90
35258;DHT22;21385;50.878;8.050;2023-11-21T15:26:16;10.30;99.90
35258;DHT22;21385;50.878;8.050;2023-11-21T15:28:42;10.30;99.90
35258;DHT22;21385;50.878;8.050;2023-11-21T15:31:07;10.40;99.90
35258;DHT22;21385;50.878;8.050;2023-11-21T15:33:34;10.40;99.90
35258;DHT22;21385;50.878;8.050;2023-11-21T15:36:02;10.40;99.90
35258;DHT22;21385;50.878;8.050;2023-11-21T15:38:29;10.40;99.90
35258;DHT22;21385;50.878;8.050;2023-11-21T15:40:55;10.40;99.90
35258;DHT22;21385;50.878;8.050;2023-11-21T15:43:20;10.40;99.90
35258;DHT22;21385;50.878;8.050;2023-11-21T15:45:46;10.30;99.90
35258;DHT22;21385;50.878;8.050;2023-11-21T15:48:12;10.30;99.90
35258;DHT22;21385;50.878;8.050;2023-11-21T15:50:37;10.40;99.90
35258;DHT22;21385;50.878;8.050;2023-11-21T15:53:03;10.30;99.90
35258;DHT22;21385;50.878;8.050;2023-11-21T15:55:30;10.30;99.90
35258;DHT22;21385;50.878;8.050;2023-11-21T15:57:56;10.20;99.90
35258;DHT22;21385;50.878;8.050;2023-11-21T16:00:21;10.20;99.90